Time;durP1;ratioP1;P1;durP2;ratioP2;P2;SDS_P1;SDS_P2;PMS_P1;PMS_P2;Temp;Humidity;BMP_temperature;BMP_pressure;BME280_temperature;BME280_humidity;BME280_pressure;Samples;Min_cycle;Max_cycle;Signal;HPM_P1;HPM_P2
2022/06/07 00:00:59;;;;;;;;;3.00;3.00;;;;;22.32;48.63;98378.84;4997382;27;104062;-64
2022/06/07 00:03:27;;;;;;;;;4.00;3.00;;;;;22.32;48.54;98372.50;4977023;27;102145;-64
2022/06/07 00:05:55;;;;;;;;;3.00;3.00;;;;;22.32;48.31;98367.00;5026170;27;102137;-64
2022/06/07 00:08:23;;;;;;;;;2.33;1.67;;;;;22.32;48.39;98369.75;5005543;27;102204;-64
2022/06/07 00:10:50;;;;;;;;;3.00;3.00;;;;;22.32;48.57;98369.75;5004922;27;109808;-64
2022/06/07 00:13:18;;;;;;;;;4.00;3.00;;;;;22.30;48.30;98360.94;4978363;27;102403;-65
2022/06/07 00:15:45;;;;;;;;;3.00;3.00;;;;;22.30;48.47;98366.44;5021576;27;102464;-63
2022/06/07 00:18:12;;;;;;;;;3.00;2.33;;;;;22.30;48.59;98361.75;5016006;27;102223;-64
2022/06/07 00:20:40;;;;;;;;;4.00;3.00;;;;;22.29;48.61;98362.84;5016259;27;104051;-64
2022/06/07 00:23:09;;;;;;;;;2.33;2.33;;;;;22.29;48.41;98349.09;5015436;27;102338;-64
2022/06/07 00:25:36;;;;;;;;;3.00;3.00;;;;;22.29;48.41;98356.56;4993540;27;102542;-64
2022/06/07 00:28:04;;;;;;;;;3.00;3.00;;;;;22.29;48.71;98353.78;4993016;27;102335;-64
2022/06/07 00:30:31;;;;;;;;;2.67;2.67;;;;;22.30;48.69;98358.19;5014936;27;104323;-64
2022/06/07 00:32:58;;;;;;;;;3.33;2.67;;;;;22.30;48.53;98352.66;5000099;27;102336;-63
2022/06/07 00:35:26;;;;;;;;;2.00;2.00;;;;;22.30;48.68;98352.66;5031259;27;102444;-63
2022/06/07 00:37:53;;;;;;;;;3.33;3.33;;;;;22.30;48.60;98347.16;5005127;27;102399;-64
2022/06/07 00:40:20;;;;;;;;;3.00;3.00;;;;;22.30;48.67;98347.16;5004890;27;104132;-64
2022/06/07 00:42:47;;;;;;;;;3.00;3.00;;;;;22.28;48.57;98339.19;5010869;27;102522;-64
2022/06/07 00:45:17;;;;;;;;;1.67;1.67;;;;;22.29;48.41;98351.03;5005940;27;102162;-64
2022/06/07 00:47:44;;;;;;;;;2.00;2.00;;;;;22.28;48.60;98350.22;5009653;27;102424;-64
2022/06/07 00:50:17;;;;;;;;;0.67;0.67;;;;;22.28;48.62;98346.63;5020254;27;105986;-65
2022/06/07 00:52:45;;;;;;;;;2.67;2.00;;;;;22.28;48.67;98343.88;4999651;27;102157;-64
2022/06/07 00:55:12;;;;;;;;;3.00;2.00;;;;;22.28;48.59;98343.88;5000708;27;102276;-64
2022/06/07 00:57:39;;;;;;;;;2.00;2.00;;;;;22.27;48.66;98353.25;5016814;27;102593;-64
2022/06/07 01:00:08;;;;;;;;;2.00;2.00;;;;;22.28;48.35;98343.88;4991009;27;103815;-64
2022/06/07 01:02:35;;;;;;;;;3.00;2.00;;;;;22.27;48.58;98347.72;4962312;27;102338;-64
2022/06/07 01:05:03;;;;;;;;;3.00;3.00;;;;;22.27;48.55;98347.72;4993832;27;102556;-64
2022/06/07 01:13:01;;;;;;;;;2.00;2.00;;;;;22.27;48.33;98331.19;4869162;28;102579;-63
2022/06/07 01:15:28;;;;;;;;;3.00;3.00;;;;;22.25;48.68;98331.47;4965159;27;104309;-64
2022/06/07 01:17:55;;;;;;;;;3.00;3.00;;;;;22.25;48.76;98328.72;5005651;27;103206;-64
2022/06/07 01:20:23;;;;;;;;;2.67;2.33;;;;;22.22;48.83;98327.38;5000882;27;104317;-64
2022/06/07 01:22:50;;;;;;;;;3.00;3.00;;;;;22.23;48.73;98326.28;5006088;27;102321;-64
2022/06/07 01:25:21;;;;;;;;;4.67;4.00;;;;;22.23;48.81;98329.03;5000255;27;103240;-64
2022/06/07 01:27:48;;;;;;;;;3.33;2.33;;;;;22.23;48.67;98320.75;5013663;27;102589;-64
2022/06/07 01:30:15;;;;;;;;;3.00;3.00;;;;;22.22;48.61;98313.59;5014887;27;104209;-64
2022/06/07 01:32:43;;;;;;;;;1.67;1.67;;;;;22.23;48.63;98314.44;5013695;27;102125;-64
2022/06/07 01:35:10;;;;;;;;;3.00;3.00;;;;;22.22;48.55;98307.25;5015540;27;102174;-64
2022/06/07 01:37:37;;;;;;;;;3.00;3.00;;;;;22.21;48.50;98311.94;5028192;27;103668;-63
2022/06/07 01:42:51;;;;;;;;;4.00;3.00;;;;;22.20;48.83;98299.28;5013277;27;102204;-64
2022/06/07 01:45:19;;;;;;;;;2.33;2.33;;;;;22.20;48.44;98299.28;5025480;27;102347;-64
2022/06/07 01:47:46;;;;;;;;;2.67;2.67;;;;;22.19;48.60;98288.56;5022876;27;102393;-64
2022/06/07 01:50:13;;;;;;;;;2.67;2.00;;;;;22.19;48.61;98292.13;5010435;27;103595;-64
2022/06/07 01:52:41;;;;;;;;;3.00;2.33;;;;;22.18;48.63;98290.50;5013743;27;102411;-65
2022/06/07 01:55:08;;;;;;;;;2.33;2.00;;;;;22.18;48.84;98289.66;5013735;27;101863;-64
2022/06/07 01:57:35;;;;;;;;;1.67;1.67;;;;;22.18;48.59;98278.66;5023896;27;104258;-64
2022/06/07 02:00:04;;;;;;;;;1.67;1.67;;;;;22.19;48.49;98286.63;5026225;27;104188;-64
2022/06/07 02:02:31;;;;;;;;;1.67;1.67;;;;;22.17;48.69;98279.75;5017282;27;103225;-64
2022/06/07 02:04:58;;;;;;;;;2.00;2.00;;;;;22.17;48.50;98266.81;5015967;27;102457;-64
2022/06/07 02:07:26;;;;;;;;;3.00;3.00;;;;;22.18;48.79;98282.22;5014695;27;102570;-64
2022/06/07 02:09:53;;;;;;;;;3.67;3.00;;;;;22.17;48.72;98279.75;5018672;27;104056;-63
2022/06/07 02:12:20;;;;;;;;;3.00;3.00;;;;;22.16;48.71;98276.16;5022387;27;102341;-64
2022/06/07 02:14:47;;;;;;;;;3.00;3.00;;;;;22.16;48.85;98276.16;5014825;27;102343;-64
2022/06/07 02:17:14;;;;;;;;;3.00;2.00;;;;;22.16;48.78;98278.09;5004345;27;102906;-64
2022/06/07 02:19:41;;;;;;;;;4.00;3.00;;;;;22.15;48.88;98280.03;5020109;27;104027;-64
2022/06/07 02:22:08;;;;;;;;;2.33;2.33;;;;;22.15;48.82;98273.72;5032467;27;102321;-64
2022/06/07 02:24:35;;;;;;;;;2.33;2.00;;;;;22.14;48.73;98283.91;5018920;27;102191;-63
2022/06/07 02:27:10;;;;;;;;;3.00;3.00;;;;;22.13;49.16;98278.66;5014714;27;102392;-64
2022/06/07 02:29:39;;;;;;;;;2.00;2.00;;;;;22.13;48.95;98279.50;5005397;27;109219;-64
2022/06/07 02:32:16;;;;;;;;;3.67;3.00;;;;;22.13;48.67;98274.00;5022966;27;102427;-63
2022/06/07 02:34:45;;;;;;;;;1.67;1.00;;;;;22.12;48.93;98272.34;5018480;27;102401;-63
2022/06/07 02:37:12;;;;;;;;;2.00;2.00;;;;;22.13;48.66;98270.41;4987556;27;102240;-64
2022/06/07 02:39:39;;;;;;;;;2.00;2.00;;;;;22.13;48.75;98276.75;5002474;27;104204;-64
2022/06/07 02:42:07;;;;;;;;;2.00;2.00;;;;;22.12;48.69;98275.09;5012419;27;102345;-63
2022/06/07 02:44:34;;;;;;;;;2.00;2.00;;;;;22.12;49.13;98275.09;5023389;27;102573;-63
2022/06/07 02:47:02;;;;;;;;;2.33;2.00;;;;;22.12;48.99;98277.84;5028164;27;102149;-63
2022/06/07 02:49:29;;;;;;;;;2.00;2.00;;;;;22.10;49.00;98277.31;5021291;27;104155;-64
2022/06/07 02:51:57;;;;;;;;;2.67;2.67;;;;;22.11;49.25;98278.94;5011189;27;102505;-64
2022/06/07 02:54:35;;;;;;;;;2.33;2.00;;;;;22.10;48.86;98276.50;5007791;27;102990;-64
2022/06/07 02:57:03;;;;;;;;;3.00;3.00;;;;;22.10;48.94;98277.31;5025892;27;102182;-64
2022/06/07 02:59:30;;;;;;;;;2.33;2.33;;;;;22.09;48.84;98272.91;5010475;27;104115;-64
2022/06/07 03:01:57;;;;;;;;;3.67;3.33;;;;;22.11;49.08;98276.19;4997052;27;105081;-64
2022/06/07 03:04:24;;;;;;;;;2.00;2.00;;;;;22.11;49.01;98281.69;5010301;27;102716;-64
2022/06/07 03:06:51;;;;;;;;;2.67;2.67;;;;;22.10;49.11;98282.00;5003377;27;102582;-63
2022/06/07 03:09:18;;;;;;;;;2.67;2.67;;;;;22.10;49.22;98285.56;5005480;27;104233;-64
2022/06/07 03:11:46;;;;;;;;;3.67;3.67;;;;;22.11;48.92;98291.91;4982283;27;102255;-64
2022/06/07 03:14:13;;;;;;;;;3.67;3.33;;;;;22.12;48.90;98296.28;5007072;27;102147;-64
2022/06/07 03:16:40;;;;;;;;;2.67;2.00;;;;;22.11;48.88;98294.66;5027908;27;102358;-64
2022/06/07 03:19:07;;;;;;;;;2.00;2.00;;;;;22.10;48.86;98296.59;5032851;27;104241;-64
2022/06/07 03:21:34;;;;;;;;;2.00;2.00;;;;;22.09;48.67;98281.16;5019394;27;102187;-63
2022/06/07 03:24:01;;;;;;;;;3.67;3.00;;;;;22.09;49.04;98289.44;5009262;27;102393;-64
2022/06/07 03:26:29;;;;;;;;;2.00;2.00;;;;;22.09;49.21;98286.69;5013105;27;103766;-63
2022/06/07 03:28:57;;;;;;;;;0.00;0.00;;;;;22.08;48.85;98293.28;5005747;27;104049;-63
2022/06/07 03:31:24;;;;;;;;;3.00;3.00;;;;;22.08;49.09;98285.03;5008759;27;102744;-63
2022/06/07 03:33:51;;;;;;;;;3.67;3.00;;;;;22.08;48.81;98290.53;5014565;27;102340;-63
2022/06/07 03:36:23;;;;;;;;;3.67;3.00;;;;;22.10;49.07;98290.25;5006522;27;102200;-63
2022/06/07 03:38:51;;;;;;;;;2.00;2.00;;;;;22.08;48.51;98282.28;5025263;27;104232;-63
2022/06/07 03:41:20;;;;;;;;;3.33;1.67;;;;;22.08;49.16;98276.75;5023852;27;102700;-63
2022/06/07 03:43:47;;;;;;;;;3.00;3.00;;;;;22.09;49.08;98286.69;5016961;27;102466;-64
2022/06/07 03:46:17;;;;;;;;;2.67;2.67;;;;;22.09;49.09;98283.94;5011427;27;102570;-64
2022/06/07 03:48:45;;;;;;;;;2.33;1.67;;;;;22.09;48.84;98292.19;5011330;27;104230;-64
2022/06/07 03:51:12;;;;;;;;;2.00;2.00;;;;;22.11;48.76;98289.16;5019085;27;102198;-65
2022/06/07 03:53:41;;;;;;;;;3.00;2.00;;;;;22.10;48.90;98284.75;5000791;27;102197;-64
2022/06/07 03:56:09;;;;;;;;;3.00;3.00;;;;;22.09;48.95;98278.41;5007015;27;104665;-63
2022/06/07 03:58:38;;;;;;;;;3.00;2.00;;;;;22.09;48.84;98280.34;5013383;27;103772;-64
2022/06/07 04:01:10;;;;;;;;;3.00;2.67;;;;;22.08;48.61;98281.44;5014714;27;102329;-64
2022/06/07 04:03:42;;;;;;;;;2.67;2.67;;;;;22.09;49.07;98285.84;5008526;27;102164;-63
2022/06/07 04:06:22;;;;;;;;;3.00;3.00;;;;;22.07;49.02;98282.53;5011248;27;102510;-64
2022/06/07 04:08:49;;;;;;;;;1.00;1.00;;;;;22.09;48.61;98283.94;5006192;27;104262;-64
2022/06/07 04:11:18;;;;;;;;;0.67;0.67;;;;;22.10;48.82;98273.75;5013898;27;102530;-63
2022/06/07 04:13:45;;;;;;;;;3.67;3.33;;;;;22.10;48.48;98277.31;5012110;27;102730;-64
2022/06/07 04:16:14;;;;;;;;;4.00;3.00;;;;;22.10;48.74;98273.75;5019048;27;102239;-63
2022/06/07 04:18:42;;;;;;;;;1.67;1.67;;;;;22.11;48.64;98272.63;5013037;27;104195;-64
2022/06/07 04:21:09;;;;;;;;;2.00;2.00;;;;;22.11;48.86;98272.63;5018093;27;110411;-63
2022/06/07 04:23:36;;;;;;;;;2.33;1.33;;;;;22.11;48.89;98278.16;5016753;27;102353;-64
2022/06/07 04:26:08;;;;;;;;;2.00;2.00;;;;;22.11;48.66;98278.16;5018919;27;102271;-64
2022/06/07 04:28:35;;;;;;;;;3.00;2.00;;;;;22.11;48.83;98275.38;5011417;27;109089;-64
2022/06/07 04:31:02;;;;;;;;;2.00;2.00;;;;;22.11;48.64;98278.94;5004445;27;103143;-64
2022/06/07 04:33:29;;;;;;;;;2.00;2.00;;;;;22.11;48.86;98272.63;5010129;27;102458;-64
2022/06/07 04:35:56;;;;;;;;;2.67;2.67;;;;;22.09;48.91;98270.16;5012751;27;102701;-64
2022/06/07 04:38:23;;;;;;;;;3.33;3.00;;;;;22.11;48.86;98278.16;5015909;27;104236;-64
2022/06/07 04:40:50;;;;;;;;;3.00;3.00;;;;;22.11;48.92;98270.69;5002377;27;102337;-64
2022/06/07 04:43:17;;;;;;;;;2.00;2.00;;;;;22.11;49.14;98270.69;4997591;27;102211;-64
2022/06/07 04:45:48;;;;;;;;;3.00;2.33;;;;;22.12;49.03;98275.09;5005531;27;102490;-63
2022/06/07 04:48:16;;;;;;;;;3.33;3.00;;;;;22.13;48.58;98279.50;5000582;27;105293;-64
2022/06/07 04:50:43;;;;;;;;;3.00;3.00;;;;;22.13;48.71;98281.41;5009555;27;102447;-64
2022/06/07 04:53:10;;;;;;;;;3.00;3.00;;;;;22.13;48.82;98268.47;5015195;27;102737;-64
2022/06/07 04:55:38;;;;;;;;;2.67;2.67;;;;;22.12;48.89;98275.09;5014788;27;103644;-64
2022/06/07 04:58:05;;;;;;;;;2.67;2.67;;;;;22.13;48.52;98282.25;5019525;27;103792;-65
2022/06/07 05:00:32;;;;;;;;;4.00;3.00;;;;;22.13;48.74;98285.00;5013709;27;102764;-64
2022/06/07 05:02:59;;;;;;;;;2.00;2.00;;;;;22.13;48.83;98276.75;5007507;27;102344;-64
2022/06/07 05:05:26;;;;;;;;;3.67;3.00;;;;;22.12;48.37;98277.84;5008914;27;102605;-63
2022/06/07 05:07:54;;;;;;;;;3.67;3.00;;;;;22.13;48.58;98282.25;5030755;27;104291;-64
2022/06/07 05:10:21;;;;;;;;;2.00;1.00;;;;;22.13;48.58;98276.75;5013555;27;102315;-64
2022/06/07 05:12:48;;;;;;;;;2.67;1.67;;;;;22.13;48.46;98279.50;5015051;27;102362;-65
2022/06/07 05:15:15;;;;;;;;;2.33;2.00;;;;;22.15;48.50;98281.97;5014348;27;102482;-64
2022/06/07 05:17:42;;;;;;;;;2.00;2.00;;;;;22.15;48.69;98285.53;5009448;27;104093;-63
2022/06/07 05:20:09;;;;;;;;;3.00;2.00;;;;;22.15;48.55;98285.53;5016638;27;102490;-64
2022/06/07 05:22:36;;;;;;;;;3.33;3.00;;;;;22.15;48.83;98285.53;5014324;27;102379;-64
2022/06/07 05:25:08;;;;;;;;;1.67;1.67;;;;;22.15;48.61;98288.28;5016194;27;102227;-63
2022/06/07 05:27:40;;;;;;;;;3.00;3.00;;;;;22.16;48.85;98291.84;5030640;27;104049;-64
2022/06/07 05:30:10;;;;;;;;;2.67;2.00;;;;;22.16;48.68;98298.19;5020089;27;104225;-64
2022/06/07 05:32:37;;;;;;;;;2.00;2.00;;;;;22.17;48.74;98299.84;5008102;27;102489;-64
2022/06/07 05:35:05;;;;;;;;;3.00;3.00;;;;;22.16;48.79;98291.84;5011099;27;102216;-64
2022/06/07 05:37:34;;;;;;;;;2.67;2.67;;;;;22.16;48.78;98289.94;5014437;27;104065;-64
2022/06/07 05:40:03;;;;;;;;;2.00;2.00;;;;;22.15;48.50;98302.06;5035998;27;102388;-64
2022/06/07 05:42:30;;;;;;;;;2.67;2.67;;;;;22.16;48.50;98294.63;5020843;27;102135;-64
2022/06/07 05:44:58;;;;;;;;;3.00;3.00;;;;;22.16;48.46;98300.13;5018816;27;102091;-64
2022/06/07 05:47:25;;;;;;;;;2.00;2.00;;;;;22.18;48.52;98297.91;5014199;27;104021;-64
2022/06/07 05:49:52;;;;;;;;;2.00;2.00;;;;;22.17;48.50;98297.09;5022025;27;102290;-63
2022/06/07 05:52:19;;;;;;;;;3.00;2.00;;;;;22.17;48.43;98297.09;5018164;27;102261;-63
2022/06/07 05:54:46;;;;;;;;;2.00;2.00;;;;;22.17;48.69;98294.34;5016733;27;102390;-64
2022/06/07 05:57:13;;;;;;;;;2.33;2.00;;;;;22.18;48.50;98289.66;5015155;27;104188;-63
2022/06/07 05:59:40;;;;;;;;;2.00;2.00;;;;;22.18;48.53;98289.66;5018789;27;103040;-64
2022/06/07 06:02:09;;;;;;;;;2.00;2.00;;;;;22.18;48.43;98284.16;5008644;27;108571;-64
2022/06/07 06:04:36;;;;;;;;;2.33;2.33;;;;;22.19;48.69;98285.81;5028101;27;102647;-64
2022/06/07 06:07:04;;;;;;;;;2.67;2.67;;;;;22.18;48.71;98286.91;5002207;27;104220;-64
2022/06/07 06:12:22;;;;;;;;;2.00;2.00;;;;;22.17;48.52;98283.31;5010630;27;102110;-64
2022/06/07 06:14:49;;;;;;;;;2.00;2.00;;;;;22.17;48.63;98275.06;5011626;27;102148;-64
2022/06/07 06:17:16;;;;;;;;;3.00;3.00;;;;;22.18;48.36;98284.16;5031757;27;104082;-63
2022/06/07 06:19:43;;;;;;;;;1.67;1.67;;;;;22.18;48.55;98279.47;5010735;27;102391;-64
2022/06/07 06:22:11;;;;;;;;;2.33;2.33;;;;;22.18;48.68;98273.97;5029760;27;102306;-64
2022/06/07 06:24:38;;;;;;;;;2.00;2.00;;;;;22.19;48.46;98272.03;5023635;27;102325;-65
2022/06/07 06:27:05;;;;;;;;;2.00;2.00;;;;;22.19;48.43;98264.59;5014364;27;104501;-64
2022/06/07 06:29:32;;;;;;;;;2.00;2.00;;;;;22.20;48.60;98268.97;5014388;27;102556;-63
2022/06/07 06:32:00;;;;;;;;;2.00;2.00;;;;;22.21;48.73;98276.13;4987351;28;102595;-64
2022/06/07 06:34:29;;;;;;;;;2.67;2.33;;;;;22.20;48.49;98270.91;5011946;27;102754;-64
2022/06/07 06:36:57;;;;;;;;;1.67;1.67;;;;;22.21;48.56;98269.81;5025919;27;104057;-64
2022/06/07 06:39:24;;;;;;;;;2.00;2.00;;;;;22.20;48.63;98271.72;5008452;28;102420;-64
2022/06/07 06:41:51;;;;;;;;;2.00;2.00;;;;;22.20;48.35;98263.47;5014105;27;102059;-64
2022/06/07 06:44:19;;;;;;;;;2.33;2.33;;;;;22.21;48.55;98269.81;5017630;27;102426;-63
2022/06/07 06:46:47;;;;;;;;;2.00;1.67;;;;;22.22;48.58;98268.69;5018298;27;104058;-64
2022/06/07 06:49:15;;;;;;;;;2.00;1.33;;;;;22.21;48.50;98273.38;5012989;27;102160;-65
2022/06/07 06:51:42;;;;;;;;;2.00;2.00;;;;;22.22;48.34;98264.03;5017324;27;103468;-64
2022/06/07 06:54:11;;;;;;;;;1.33;1.33;;;;;22.22;48.72;98269.53;4999862;28;102352;-63
2022/06/07 06:56:38;;;;;;;;;2.00;2.00;;;;;22.23;48.57;98265.69;5008315;27;109774;-64
2022/06/07 06:59:05;;;;;;;;;2.67;1.67;;;;;22.24;48.50;98266.50;5021591;27;103130;-64
2022/06/07 07:01:33;;;;;;;;;2.00;2.00;;;;;22.22;48.33;98264.03;5035355;27;102292;-64
2022/06/07 07:04:03;;;;;;;;;3.00;2.00;;;;;22.23;48.49;98276.69;5013842;27;102237;-64
2022/06/07 07:06:30;;;;;;;;;2.00;2.00;;;;;22.23;48.39;98260.16;5031611;27;104213;-65
2022/06/07 07:08:57;;;;;;;;;2.67;2.67;;;;;22.23;48.58;98260.16;5019561;27;102490;-64
2022/06/07 07:11:37;;;;;;;;;4.00;3.00;;;;;22.24;48.63;98266.50;5017795;27;102500;-65
2022/06/07 07:14:06;;;;;;;;;2.00;2.00;;;;;22.24;48.54;98266.50;5020866;27;102162;-64
2022/06/07 07:16:34;;;;;;;;;2.33;2.33;;;;;22.23;48.42;98265.69;5010853;27;104011;-64
2022/06/07 07:19:03;;;;;;;;;2.00;2.00;;;;;22.25;48.60;98268.13;5020251;27;102143;-65
2022/06/07 07:21:35;;;;;;;;;2.67;2.67;;;;;22.24;48.63;98261.78;5021617;27;102198;-63
2022/06/07 07:24:08;;;;;;;;;2.00;2.00;;;;;22.27;48.34;98262.34;5010435;27;102370;-63
2022/06/07 07:26:36;;;;;;;;;0.67;0.67;;;;;22.25;48.31;98268.94;5014154;27;104093;-65
2022/06/07 07:29:04;;;;;;;;;2.00;2.00;;;;;22.27;48.29;98262.34;4999669;27;102079;-63
2022/06/07 07:31:33;;;;;;;;;2.67;2.00;;;;;22.26;48.30;98258.75;5019277;27;102341;-64
2022/06/07 07:34:01;;;;;;;;;2.00;2.00;;;;;22.26;48.46;98264.28;5025323;27;102191;-65
2022/06/07 07:36:28;;;;;;;;;3.00;1.67;;;;;22.26;48.28;98247.75;5011656;27;104038;-64
2022/06/07 07:38:56;;;;;;;;;1.00;1.00;;;;;22.27;48.58;98254.06;5006099;27;102343;-63
2022/06/07 07:41:28;;;;;;;;;1.67;1.67;;;;;22.27;48.56;98252.16;5019363;27;102603;-64
2022/06/07 07:43:56;;;;;;;;;1.00;1.00;;;;;22.28;48.26;98244.72;5003711;27;102571;-63
2022/06/07 07:46:26;;;;;;;;;2.00;2.00;;;;;22.28;48.42;98250.22;5000451;27;104032;-64
2022/06/07 07:48:53;;;;;;;;;2.00;2.00;;;;;22.28;48.43;98261.25;5007655;27;102008;-64
2022/06/07 07:51:22;;;;;;;;;3.33;3.33;;;;;22.28;48.53;98248.28;5026911;27;102138;-64
2022/06/07 07:53:51;;;;;;;;;2.00;2.00;;;;;22.28;48.30;98247.47;5011720;27;102376;-64
2022/06/07 07:56:18;;;;;;;;;2.33;2.33;;;;;22.29;48.48;98249.13;5012332;27;104178;-64
2022/06/07 07:58:45;;;;;;;;;2.67;2.00;;;;;22.30;48.65;98248.00;5006819;27;103987;-64
2022/06/07 08:01:15;;;;;;;;;2.00;2.00;;;;;22.29;48.42;98241.66;5010786;27;102272;-63
2022/06/07 08:03:42;;;;;;;;;2.00;1.33;;;;;22.31;48.44;98249.63;5005822;27;102157;-65
2022/06/07 08:06:15;;;;;;;;;2.00;2.00;;;;;22.29;48.69;98247.16;5007892;27;108997;-63
2022/06/07 08:08:43;;;;;;;;;2.67;2.67;;;;;22.30;48.33;98242.47;4998848;27;102220;-64
2022/06/07 08:11:11;;;;;;;;;2.67;2.00;;;;;22.30;48.33;98253.50;5015088;27;102365;-63
2022/06/07 08:13:38;;;;;;;;;2.67;2.00;;;;;22.30;48.50;98250.75;5013124;27;102281;-64
2022/06/07 08:16:06;;;;;;;;;3.33;2.33;;;;;22.30;48.23;98253.50;4997199;27;104978;-63
2022/06/07 08:18:34;;;;;;;;;1.33;1.33;;;;;22.29;48.32;98255.44;5010266;27;102181;-64
2022/06/07 08:21:05;;;;;;;;;2.00;2.00;;;;;22.31;48.35;98252.41;5007181;27;102835;-64
2022/06/07 08:23:32;;;;;;;;;2.00;2.00;;;;;22.31;48.63;98255.16;5004606;27;102348;-63
2022/06/07 08:26:00;;;;;;;;;2.33;2.00;;;;;22.31;48.50;98239.44;5009687;27;104053;-64
2022/06/07 08:28:27;;;;;;;;;2.33;2.33;;;;;22.31;48.19;98238.63;5008167;27;102568;-64
2022/06/07 08:30:54;;;;;;;;;1.67;1.67;;;;;22.31;48.32;98233.13;5011398;27;102301;-63
2022/06/07 08:38:55;;;;;;;;;1.67;1.67;;;;;22.34;48.39;98232.53;5000536;27;105147;-64
2022/06/07 08:41:25;;;;;;;;;2.00;2.00;;;;;22.34;48.23;98229.78;5021381;27;102120;-65
2022/06/07 08:43:52;;;;;;;;;2.00;2.00;;;;;22.35;48.14;98236.94;5008643;27;102326;-65
2022/06/07 08:46:28;;;;;;;;;3.67;3.00;;;;;22.35;48.55;98236.94;5013934;27;104097;-64
2022/06/07 08:48:56;;;;;;;;;2.67;2.67;;;;;22.35;48.63;98231.44;5006558;27;102670;-63
2022/06/07 08:51:29;;;;;;;;;2.00;2.00;;;;;22.36;48.09;98242.16;4999344;28;102314;-64
2022/06/07 08:53:58;;;;;;;;;1.67;1.67;;;;;22.36;48.34;98233.91;5031386;27;102418;-64
2022/06/07 08:56:32;;;;;;;;;1.67;1.67;;;;;22.38;48.52;98230.88;4992744;28;103956;-64
2022/06/07 08:59:01;;;;;;;;;1.67;1.67;;;;;22.38;48.33;98222.63;5005107;27;102349;-64
2022/06/07 09:01:35;;;;;;;;;3.00;3.00;;;;;22.40;48.22;98231.41;5005415;27;102373;-64
2022/06/07 09:04:14;;;;;;;;;1.00;1.00;;;;;22.40;48.20;98231.41;4993193;27;102248;-64
2022/06/07 09:06:47;;;;;;;;;2.00;2.00;;;;;22.40;48.25;98225.88;5009971;27;108922;-63
2022/06/07 09:09:15;;;;;;;;;2.00;2.00;;;;;22.40;48.24;98231.41;5015584;27;102451;-64
2022/06/07 09:12:14;;;;;;;;;2.00;2.00;;;;;22.40;48.14;98229.47;5017635;27;102211;-64
2022/06/07 09:14:50;;;;;;;;;1.00;1.00;;;;;22.42;48.41;98229.19;4997473;27;102315;-64
2022/06/07 09:17:36;;;;;;;;;3.00;2.67;;;;;22.42;48.07;98218.16;5016133;27;109124;-63
2022/06/07 09:20:06;;;;;;;;;1.00;1.00;;;;;22.42;48.09;98224.50;5001384;27;102197;-64
2022/06/07 09:22:42;;;;;;;;;3.00;2.00;;;;;22.43;48.21;98215.09;4990828;27;102309;-64
2022/06/07 09:25:30;;;;;;;;;3.00;2.00;;;;;22.45;48.07;98214.84;5003599;27;102511;-64
2022/06/07 09:27:58;;;;;;;;;2.00;2.00;;;;;22.46;48.29;98214.56;5006537;27;108911;-65
2022/06/07 09:30:33;;;;;;;;;2.00;2.00;;;;;22.47;48.13;98209.88;5001063;28;102041;-64
2022/06/07 09:33:29;;;;;;;;;0.67;0.67;;;;;22.47;47.97;98207.91;5000098;27;102428;-64
2022/06/07 09:36:00;;;;;;;;;3.00;2.00;;;;;22.47;48.10;98199.66;5010619;27;102162;-64
2022/06/07 09:39:22;;;;;;;;;3.00;2.00;;;;;22.49;48.33;98202.13;5002964;27;104043;-64
2022/06/07 09:41:54;;;;;;;;;1.67;1.67;;;;;22.49;48.00;98193.84;4944936;27;102276;-64
2022/06/07 09:44:40;;;;;;;;;1.00;1.00;;;;;22.50;48.07;98192.75;4997860;28;102241;-64
2022/06/07 09:47:16;;;;;;;;;2.00;2.00;;;;;22.49;47.96;98183.66;5014049;27;102468;-64
2022/06/07 09:49:49;;;;;;;;;2.00;2.00;;;;;22.49;48.00;98186.41;4995497;27;109123;-65
2022/06/07 09:52:24;;;;;;;;;1.00;1.00;;;;;22.50;48.20;98178.97;5011236;27;102379;-64
2022/06/07 09:55:00;;;;;;;;;2.00;2.00;;;;;22.51;48.28;98172.38;5022813;27;102372;-64
2022/06/07 09:57:37;;;;;;;;;2.67;2.67;;;;;22.52;48.19;98165.72;5015882;27;102448;-64
2022/06/07 10:00:09;;;;;;;;;1.67;1.67;;;;;22.53;47.84;98170.13;5012244;27;104187;-64
2022/06/07 10:03:01;;;;;;;;;3.00;2.00;;;;;22.53;48.01;98165.44;5014352;27;101912;-65
2022/06/07 10:05:33;;;;;;;;;2.00;2.00;;;;;22.55;47.78;98162.41;5004438;27;102375;-65
2022/06/07 10:08:26;;;;;;;;;2.00;2.00;;;;;22.55;47.90;98154.97;5001746;27;102429;-64
2022/06/07 10:11:06;;;;;;;;;2.33;2.00;;;;;22.56;47.79;98159.34;5014781;27;109033;-64
2022/06/07 10:13:36;;;;;;;;;1.67;1.67;;;;;22.58;47.96;98150.78;4997902;27;102295;-64
2022/06/07 10:16:11;;;;;;;;;2.00;2.00;;;;;22.57;47.98;98161.00;5006921;27;102494;-64
2022/06/07 10:18:56;;;;;;;;;2.67;2.00;;;;;22.57;48.06;98149.97;5003827;27;102482;-64
2022/06/07 10:21:57;;;;;;;;;1.67;1.67;;;;;22.58;47.81;98145.28;5012582;27;108816;-64
2022/06/07 10:24:42;;;;;;;;;2.00;2.00;;;;;22.59;47.68;98141.41;5001163;27;102069;-64
2022/06/07 10:27:27;;;;;;;;;3.00;2.00;;;;;22.60;47.83;98132.84;4999001;27;102339;-65
2022/06/07 10:30:15;;;;;;;;;1.67;1.67;;;;;22.60;47.88;98129.28;4998858;27;102649;-64
2022/06/07 10:32:51;;;;;;;;;2.67;2.67;;;;;22.61;48.01;98128.16;5018679;27;108921;-66
2022/06/07 10:35:26;;;;;;;;;1.67;1.67;;;;;22.63;47.86;98135.03;5006876;27;104961;-64
2022/06/07 10:38:18;;;;;;;;;3.00;3.00;;;;;22.64;47.90;98127.59;5011338;27;102163;-65
2022/06/07 10:41:12;;;;;;;;;0.67;0.67;;;;;22.64;47.98;98128.41;5015169;27;102309;-64
2022/06/07 10:44:05;;;;;;;;;1.00;1.00;;;;;22.65;47.82;98109.91;5012866;27;108782;-65
2022/06/07 10:46:34;;;;;;;;;1.67;1.67;;;;;22.66;47.75;98125.34;5005576;27;102182;-65
2022/06/07 10:49:11;;;;;;;;;2.00;2.00;;;;;22.65;47.92;98123.69;5005011;27;102198;-65
2022/06/07 10:54:40;;;;;;;;;2.00;1.67;;;;;22.67;47.89;98099.44;5002471;27;108938;-65
2022/06/07 10:57:35;;;;;;;;;1.33;1.33;;;;;22.67;47.85;98102.19;5020702;27;101999;-64
2022/06/07 11:00:41;;;;;;;;;2.00;2.00;;;;;22.68;47.72;98106.59;5013948;27;102448;-64
2022/06/07 11:03:26;;;;;;;;;0.67;0.67;;;;;22.68;48.00;98101.91;5007666;27;102264;-65
2022/06/07 11:11:50;;;;;;;;;1.67;1.67;;;;;22.73;47.91;98081.78;5002801;27;102282;-64
2022/06/07 11:14:28;;;;;;;;;1.67;1.67;;;;;22.72;47.69;98082.88;5014044;27;102377;-64
2022/06/07 11:17:39;;;;;;;;;2.00;2.00;;;;;22.74;47.70;98080.63;5019864;27;108866;-64
2022/06/07 11:20:24;;;;;;;;;2.00;2.00;;;;;22.75;47.85;98073.19;4947032;28;102772;-64
2022/06/07 11:23:15;;;;;;;;;3.00;2.67;;;;;22.75;47.72;98068.50;5001612;27;102115;-64
2022/06/07 11:26:07;;;;;;;;;1.00;1.00;;;;;22.73;47.83;98065.25;5016371;27;102220;-64
2022/06/07 11:28:42;;;;;;;;;1.00;1.00;;;;;22.76;47.65;98063.81;5015663;27;108774;-64
2022/06/07 11:31:15;;;;;;;;;1.00;1.00;;;;;22.79;47.68;98068.75;5000794;27;102279;-65
2022/06/07 11:33:51;;;;;;;;;0.67;0.67;;;;;22.78;47.84;98067.94;5015519;27;102118;-63
2022/06/07 11:36:24;;;;;;;;;2.00;2.00;;;;;22.80;47.85;98070.38;5009180;27;102253;-64
2022/06/07 11:38:57;;;;;;;;;1.00;1.00;;;;;22.80;47.77;98060.19;5005069;27;109251;-65
2022/06/07 11:41:40;;;;;;;;;1.00;1.00;;;;;22.81;47.81;98061.84;5018029;27;102686;-64
2022/06/07 11:44:10;;;;;;;;;1.00;1.00;;;;;22.81;47.74;98059.06;5015969;27;102467;-64
2022/06/07 11:46:39;;;;;;;;;1.67;1.67;;;;;22.81;47.68;98053.56;5015237;27;103186;-65
2022/06/07 11:49:20;;;;;;;;;2.33;2.00;;;;;22.82;47.75;98051.63;5013206;27;104187;-64
2022/06/07 11:52:06;;;;;;;;;3.00;1.33;;;;;22.83;47.69;98047.78;5012003;27;103367;-65
2022/06/07 11:54:45;;;;;;;;;1.50;1.50;;;;;22.84;47.61;98043.88;5014558;27;102426;-65
2022/06/07 11:57:32;;;;;;;;;1.67;1.67;;;;;22.85;47.63;98040.84;5013176;27;102317;-64
2022/06/07 12:00:19;;;;;;;;;3.00;1.00;;;;;22.86;47.47;98030.63;5015370;27;104230;-64
2022/06/07 12:03:02;;;;;;;;;1.00;1.00;;;;;22.87;47.50;98027.59;5014963;27;102281;-64
2022/06/07 12:05:47;;;;;;;;;1.00;1.00;;;;;22.89;47.61;98027.28;5012206;27;102351;-65
2022/06/07 12:08:43;;;;;;;;;1.33;1.33;;;;;22.89;47.61;98025.34;5007108;27;102560;-65